Terminal Aerodrome Forecast
Issued by NWS Wakefield, VA

Home | Current Version | Previous Version | Text Only | Print | Product List | Glossary On
Versions: 1 2 3 4 5 6 7 8 9 10 11 12 13 14 15 16 17 18
000
FTUS41 KAKQ 260700 AAA
TAFORF
TAF AMD
KORF 260710Z 2607/2706 03015G22KT 3SM -RA BR OVC008
      TEMPO 2608/2610 2SM RA BR
     FM261000 03019G28KT 2SM -RA BR OVC007
     FM262000 01014G22KT 3SM -RA BR OVC005
     FM270000 32010KT P6SM OVC025=

USA.gov is the U.S. government's official web portal to all federal, state and local government web resources and services.